createdAt,value
2022-10-17T00:00:12.232Z,13.56
2022-10-17T00:01:14.949Z,13.50
2022-10-17T00:02:18.067Z,13.50
2022-10-17T00:03:52.570Z,13.50
2022-10-17T00:04:55.643Z,13.50
2022-10-17T00:05:58.531Z,13.50
2022-10-17T00:07:32.987Z,13.50
2022-10-17T00:08:35.633Z,13.50
2022-10-17T00:09:38.645Z,13.50
2022-10-17T00:11:13.108Z,13.50
2022-10-17T00:12:15.779Z,13.50
2022-10-17T00:13:18.406Z,13.50
2022-10-17T00:14:53.093Z,13.44
2022-10-17T00:15:55.752Z,13.50
2022-10-17T00:16:58.414Z,13.44
2022-10-17T00:18:33.443Z,13.44
2022-10-17T00:19:36.264Z,13.44
2022-10-17T00:20:39.042Z,13.44
2022-10-17T00:22:13.681Z,13.44
2022-10-17T00:23:16.509Z,13.44
2022-10-17T00:24:19.202Z,13.44
2022-10-17T00:25:53.620Z,13.44
2022-10-17T00:26:56.168Z,13.44
2022-10-17T00:27:58.827Z,13.44
2022-10-17T00:29:33.912Z,13.44
2022-10-17T00:30:36.570Z,13.44
2022-10-17T00:31:39.278Z,13.44
2022-10-17T00:33:14.579Z,13.44
2022-10-17T00:34:17.271Z,13.44
2022-10-17T00:35:19.925Z,13.44
2022-10-17T00:36:54.329Z,13.44
2022-10-17T00:37:56.960Z,13.44
2022-10-17T00:38:59.586Z,13.44
2022-10-17T00:40:34.002Z,13.44
2022-10-17T00:41:36.887Z,13.44
2022-10-17T00:42:39.520Z,13.44
2022-10-17T00:44:13.973Z,13.50
2022-10-17T00:45:16.668Z,13.44
2022-10-17T00:46:19.286Z,13.50
2022-10-17T00:47:53.685Z,13.50
2022-10-17T00:49:00.329Z,13.44
2022-10-17T00:51:37.471Z,13.44
2022-10-17T00:52:40.230Z,13.44
2022-10-17T00:53:43.050Z,13.50
2022-10-17T00:55:17.669Z,13.44
2022-10-17T00:56:20.293Z,13.44
2022-10-17T00:57:22.899Z,13.44
2022-10-17T00:58:57.428Z,13.44
2022-10-17T01:00:00.282Z,13.44
2022-10-17T01:00:11.849Z,13.44
2022-10-17T01:01:14.621Z,13.44
2022-10-17T01:02:17.849Z,13.44
2022-10-17T01:03:52.975Z,13.44
2022-10-17T01:04:55.683Z,13.50
2022-10-17T01:05:58.418Z,13.50
2022-10-17T01:07:36.327Z,13.50
2022-10-17T01:08:39.992Z,13.50
2022-10-17T01:09:42.890Z,13.50
2022-10-17T01:11:17.559Z,13.50
2022-10-17T01:12:20.155Z,13.50
2022-10-17T01:13:23.591Z,13.50
2022-10-17T01:14:58.158Z,13.50
2022-10-17T01:16:01.206Z,13.50
2022-10-17T01:17:03.826Z,13.50
2022-10-17T01:18:38.230Z,13.50
2022-10-17T01:19:41.019Z,13.50
2022-10-17T01:20:43.674Z,13.50
2022-10-17T01:22:18.065Z,13.56
2022-10-17T01:23:21.395Z,13.56
2022-10-17T01:24:24.007Z,13.56
2022-10-17T01:25:58.605Z,13.56
2022-10-17T01:27:01.286Z,13.56
2022-10-17T01:28:03.835Z,13.56
2022-10-17T01:29:38.910Z,13.56
2022-10-17T01:30:41.547Z,13.56
2022-10-17T01:31:44.160Z,13.56
2022-10-17T01:33:18.634Z,13.56
2022-10-17T01:34:21.430Z,13.56
2022-10-17T01:35:24.178Z,13.56
2022-10-17T01:36:58.597Z,13.56
2022-10-17T01:38:01.164Z,13.56
2022-10-17T01:39:03.934Z,13.56
2022-10-17T01:40:45.272Z,13.56
2022-10-17T01:41:48.004Z,13.56
2022-10-17T01:42:50.752Z,13.50
2022-10-17T01:44:25.281Z,13.56
2022-10-17T01:45:27.912Z,13.56
2022-10-17T01:46:30.542Z,13.56
2022-10-17T01:48:06.013Z,13.56
2022-10-17T01:49:08.749Z,13.56
2022-10-17T01:50:11.370Z,13.56
2022-10-17T01:51:45.733Z,13.56
2022-10-17T01:52:48.417Z,13.56
2022-10-17T01:53:51.068Z,13.56
2022-10-17T01:55:25.405Z,13.56
2022-10-17T01:56:28.142Z,13.56
2022-10-17T01:57:31.173Z,13.56
2022-10-17T01:59:05.852Z,13.56
2022-10-17T02:00:12.625Z,13.56
2022-10-17T02:01:15.434Z,13.56
2022-10-17T02:02:18.695Z,13.56
2022-10-17T02:03:53.120Z,13.56
2022-10-17T02:04:55.874Z,13.56
2022-10-17T02:05:58.533Z,13.50
2022-10-17T02:07:33.177Z,13.56
2022-10-17T02:08:35.852Z,13.56
2022-10-17T02:09:38.684Z,13.56
2022-10-17T02:11:13.130Z,13.56
2022-10-17T02:12:15.775Z,13.56
2022-10-17T02:13:18.384Z,13.56
2022-10-17T02:14:52.896Z,13.56
2022-10-17T02:15:55.517Z,13.56
2022-10-17T02:16:58.231Z,13.56
2022-10-17T02:18:33.275Z,13.56
2022-10-17T02:19:36.005Z,13.56
2022-10-17T02:20:38.644Z,13.56
2022-10-17T02:22:13.035Z,13.56
2022-10-17T02:23:15.824Z,13.56
2022-10-17T02:24:18.553Z,13.56
2022-10-17T02:25:53.076Z,13.56
2022-10-17T02:26:55.753Z,13.56
2022-10-17T02:27:58.404Z,13.56
2022-10-17T02:29:33.383Z,13.56
2022-10-17T02:30:35.985Z,13.56
2022-10-17T02:31:38.747Z,13.56
2022-10-17T02:33:13.274Z,13.56
2022-10-17T02:34:16.083Z,13.56
2022-10-17T02:35:18.729Z,13.56
2022-10-17T02:36:53.182Z,13.56
2022-10-17T02:37:55.933Z,13.56
2022-10-17T02:38:58.588Z,13.56
2022-10-17T02:40:33.105Z,13.56
2022-10-17T02:41:35.900Z,13.56
2022-10-17T02:42:38.639Z,13.63
2022-10-17T02:44:13.318Z,13.56
2022-10-17T02:45:15.990Z,13.56
2022-10-17T02:46:18.633Z,13.56
2022-10-17T02:47:53.112Z,13.63
2022-10-17T02:48:55.832Z,13.63
2022-10-17T02:49:58.481Z,13.63
2022-10-17T02:51:32.965Z,13.63
2022-10-17T02:52:35.822Z,13.63
2022-10-17T02:53:38.567Z,13.63
2022-10-17T02:55:13.062Z,13.63
2022-10-17T02:56:15.880Z,13.69
2022-10-17T02:57:18.576Z,13.69
2022-10-17T02:58:53.041Z,13.69
2022-10-17T02:59:55.748Z,13.69
2022-10-17T03:00:12.086Z,13.69
2022-10-17T03:01:14.810Z,13.69
2022-10-17T03:02:18.089Z,13.69
2022-10-17T03:03:52.890Z,13.69
2022-10-17T03:04:55.522Z,13.69
2022-10-17T03:05:58.121Z,13.69
2022-10-17T03:07:32.773Z,13.69
2022-10-17T03:08:35.575Z,13.69
2022-10-17T03:09:38.646Z,13.69
2022-10-17T03:11:13.094Z,13.69
2022-10-17T03:12:15.761Z,13.69
2022-10-17T03:13:18.943Z,13.69
2022-10-17T03:14:57.592Z,13.69
2022-10-17T03:16:00.299Z,13.69
2022-10-17T03:17:02.968Z,13.69
2022-10-17T03:18:37.520Z,13.69
2022-10-17T03:19:45.373Z,13.69
2022-10-17T03:20:47.976Z,13.69
2022-10-17T03:22:22.462Z,13.75
2022-10-17T03:23:25.746Z,13.75
2022-10-17T03:24:28.477Z,13.75
2022-10-17T03:26:02.997Z,13.75
2022-10-17T03:27:05.742Z,13.75
2022-10-17T03:28:09.077Z,13.75
2022-10-17T03:29:44.304Z,13.81
2022-10-17T03:30:47.103Z,13.75
2022-10-17T03:31:49.845Z,13.75
2022-10-17T03:33:24.217Z,13.75
2022-10-17T03:34:26.867Z,13.75
2022-10-17T03:35:29.504Z,13.75
2022-10-17T03:37:04.228Z,13.81
2022-10-17T03:38:07.435Z,13.81
2022-10-17T03:39:10.078Z,13.81
2022-10-17T03:40:44.487Z,13.81
2022-10-17T03:41:47.137Z,13.81
2022-10-17T03:42:49.753Z,13.81
2022-10-17T03:44:24.657Z,13.75
2022-10-17T03:45:27.363Z,13.75
2022-10-17T03:46:30.006Z,13.75
2022-10-17T03:48:04.800Z,13.75
2022-10-17T03:49:07.445Z,13.75
2022-10-17T03:50:10.302Z,13.75
2022-10-17T03:51:44.801Z,13.81
2022-10-17T03:52:47.437Z,13.75
2022-10-17T03:53:50.054Z,13.75
2022-10-17T03:55:24.507Z,13.75
2022-10-17T03:56:27.216Z,13.75
2022-10-17T03:57:30.277Z,13.75
2022-10-17T03:59:09.058Z,13.75
2022-10-17T04:00:11.783Z,13.75
2022-10-17T04:01:14.393Z,13.75
2022-10-17T04:02:17.626Z,13.75
2022-10-17T04:03:57.749Z,13.75
2022-10-17T04:05:00.377Z,13.75
2022-10-17T04:05:40.882Z,13.75
2022-10-17T04:06:43.798Z,13.75
2022-10-17T04:07:46.667Z,13.75
2022-10-17T04:09:26.010Z,13.75
2022-10-17T04:10:28.981Z,13.75
2022-10-17T04:11:31.776Z,13.75
2022-10-17T04:13:07.337Z,13.75
2022-10-17T04:14:09.952Z,13.75
2022-10-17T04:15:12.768Z,13.75
2022-10-17T04:16:47.317Z,13.75
2022-10-17T04:17:50.300Z,13.75
2022-10-17T04:18:53.318Z,13.75
2022-10-17T04:20:27.721Z,13.75
2022-10-17T04:21:31.116Z,13.75
2022-10-17T04:22:33.873Z,13.75
2022-10-17T04:24:08.507Z,13.75
2022-10-17T04:25:11.233Z,13.75
2022-10-17T04:26:17.235Z,13.75
2022-10-17T04:27:51.616Z,13.75
2022-10-17T04:28:54.474Z,13.75
2022-10-17T04:29:57.227Z,13.75
2022-10-17T04:31:34.726Z,13.75
2022-10-17T04:32:37.389Z,13.81
2022-10-17T04:33:39.946Z,13.81
2022-10-17T04:35:14.331Z,13.81
2022-10-17T04:36:17.140Z,13.81
2022-10-17T04:37:19.854Z,13.81
2022-10-17T04:38:54.477Z,13.81
2022-10-17T04:39:57.546Z,13.81
2022-10-17T04:41:00.268Z,13.81
2022-10-17T04:42:34.733Z,13.81
2022-10-17T04:43:37.465Z,13.81
2022-10-17T04:44:45.697Z,13.81
2022-10-17T04:46:20.335Z,13.81
2022-10-17T04:47:23.025Z,13.81
2022-10-17T04:48:25.981Z,13.81
2022-10-17T04:50:00.780Z,13.81
2022-10-17T04:51:03.537Z,13.81
2022-10-17T04:52:11.791Z,13.81
2022-10-17T04:53:46.720Z,13.81
2022-10-17T04:54:49.461Z,13.81
2022-10-17T04:55:52.210Z,13.81
2022-10-17T04:57:26.581Z,13.81
2022-10-17T04:58:29.277Z,13.81
2022-10-17T04:59:32.030Z,13.81
2022-10-17T05:00:12.034Z,13.81
2022-10-17T05:01:15.232Z,13.81
2022-10-17T05:02:18.254Z,13.81
2022-10-17T05:03:53.178Z,13.81
2022-10-17T05:04:59.708Z,13.81
2022-10-17T05:06:02.510Z,13.81
2022-10-17T05:07:37.137Z,13.81
2022-10-17T05:08:39.739Z,13.81
2022-10-17T05:09:42.593Z,13.81
2022-10-17T05:11:17.169Z,13.81
2022-10-17T05:12:19.819Z,13.88
2022-10-17T05:13:23.198Z,13.88
2022-10-17T05:14:57.749Z,13.88
2022-10-17T05:16:00.430Z,13.88
2022-10-17T05:17:03.204Z,13.88
2022-10-17T05:18:37.731Z,13.88
2022-10-17T05:19:44.913Z,13.88
2022-10-17T05:20:47.805Z,13.88
2022-10-17T05:22:22.446Z,13.88
2022-10-17T05:23:31.386Z,13.94
2022-10-17T05:24:34.386Z,13.88
2022-10-17T05:26:09.161Z,13.94
2022-10-17T05:27:11.901Z,13.94
2022-10-17T05:28:14.596Z,13.94
2022-10-17T05:29:49.749Z,13.88
2022-10-17T05:30:52.510Z,13.94
2022-10-17T05:31:55.275Z,13.94
2022-10-17T05:33:31.025Z,13.94
2022-10-17T05:34:33.800Z,13.94
2022-10-17T05:35:36.614Z,13.94
2022-10-17T05:37:11.260Z,13.94
2022-10-17T05:38:14.200Z,13.94
2022-10-17T05:39:16.843Z,13.94
2022-10-17T05:40:58.095Z,13.94
2022-10-17T05:42:00.854Z,13.94
2022-10-17T05:43:04.195Z,13.94
2022-10-17T05:44:42.232Z,14.00
2022-10-17T05:45:44.832Z,14.00
2022-10-17T05:46:47.744Z,14.00
2022-10-17T05:48:22.389Z,14.00
2022-10-17T05:49:33.254Z,14.00
2022-10-17T05:50:49.694Z,14.00
2022-10-17T05:52:25.387Z,14.00
2022-10-17T05:53:32.522Z,14.00
2022-10-17T05:54:35.516Z,14.00
2022-10-17T05:56:09.886Z,14.06
2022-10-17T05:57:12.548Z,14.06
2022-10-17T05:58:22.240Z,14.06
2022-10-17T06:00:12.673Z,14.06
2022-10-17T06:01:15.616Z,14.06
2022-10-17T06:02:18.630Z,14.06
2022-10-17T06:03:53.545Z,14.06
2022-10-17T06:04:56.366Z,14.06
2022-10-17T06:05:59.212Z,14.06
2022-10-17T06:07:33.989Z,14.13
2022-10-17T06:08:41.566Z,14.13
2022-10-17T06:11:18.838Z,14.13
2022-10-17T06:12:21.568Z,14.06
2022-10-17T06:13:25.089Z,14.06
2022-10-17T06:14:59.551Z,14.13
2022-10-17T06:16:02.283Z,14.13
2022-10-17T06:17:05.080Z,14.06
2022-10-17T06:18:45.251Z,14.06
2022-10-17T06:19:47.951Z,14.06
2022-10-17T06:20:50.641Z,14.13
2022-10-17T06:22:25.066Z,14.06
2022-10-17T06:23:28.434Z,14.06
2022-10-17T06:24:31.224Z,14.13
2022-10-17T06:26:05.652Z,14.13
2022-10-17T06:27:11.724Z,14.13
2022-10-17T06:28:14.594Z,14.13
2022-10-17T06:29:49.792Z,14.13
2022-10-17T06:30:52.469Z,14.13
2022-10-17T06:31:55.371Z,14.13
2022-10-17T06:33:35.135Z,14.13
2022-10-17T06:34:37.845Z,14.13
2022-10-17T06:35:40.507Z,14.13
2022-10-17T06:37:15.019Z,14.13
2022-10-17T06:38:22.833Z,14.13
2022-10-17T06:39:25.699Z,14.13
2022-10-17T06:41:00.539Z,14.13
2022-10-17T06:42:03.408Z,14.13
2022-10-17T06:43:06.101Z,14.13
2022-10-17T06:44:46.055Z,14.13
2022-10-17T06:45:48.806Z,14.13
2022-10-17T06:46:51.837Z,14.13
2022-10-17T06:48:31.470Z,14.13
2022-10-17T06:49:34.193Z,14.19
2022-10-17T06:50:36.892Z,14.13
2022-10-17T06:52:11.561Z,14.13
2022-10-17T06:53:14.821Z,14.19
2022-10-17T06:54:17.622Z,14.19
2022-10-17T06:55:57.938Z,14.19
2022-10-17T06:57:00.668Z,14.19
2022-10-17T06:58:03.801Z,14.19
2022-10-17T06:59:38.452Z,14.25
2022-10-17T07:00:12.272Z,14.25
2022-10-17T07:01:15.595Z,14.25
2022-10-17T07:02:22.358Z,14.25
2022-10-17T07:03:57.549Z,14.25
2022-10-17T07:05:00.421Z,14.31
2022-10-17T07:06:03.134Z,14.31
2022-10-17T07:07:40.178Z,14.31
2022-10-17T07:08:49.238Z,14.31
2022-10-17T07:09:51.856Z,14.31
2022-10-17T07:11:26.291Z,14.38
2022-10-17T07:12:28.917Z,14.38
2022-10-17T07:13:36.770Z,14.44
2022-10-17T07:15:13.464Z,14.44
2022-10-17T07:16:16.181Z,14.44
2022-10-17T07:17:18.996Z,14.44
2022-10-17T07:18:54.345Z,14.50
2022-10-17T07:19:56.981Z,14.50
2022-10-17T07:20:59.739Z,14.56
2022-10-17T07:22:34.177Z,14.63
2022-10-17T07:23:36.995Z,14.63
2022-10-17T07:24:39.829Z,14.63
2022-10-17T07:26:19.901Z,14.69
2022-10-17T07:27:22.817Z,14.69
2022-10-17T07:28:26.238Z,14.75
2022-10-17T07:30:01.589Z,14.75
2022-10-17T07:31:04.305Z,14.81
2022-10-17T07:32:07.091Z,14.81
2022-10-17T07:33:41.679Z,14.88
2022-10-17T07:34:44.460Z,14.88
2022-10-17T07:35:47.322Z,14.94
2022-10-17T07:37:21.850Z,14.94
2022-10-17T07:38:25.493Z,14.94
2022-10-17T07:39:28.187Z,15.00
2022-10-17T07:41:02.711Z,15.06
2022-10-17T07:42:12.510Z,15.06
2022-10-17T07:43:15.571Z,15.06
2022-10-17T07:44:50.099Z,15.13
2022-10-17T07:45:52.927Z,15.13
2022-10-17T07:46:55.702Z,15.13
2022-10-17T07:48:30.186Z,15.19
2022-10-17T07:49:32.840Z,15.19
2022-10-17T07:50:35.671Z,15.25
2022-10-17T07:52:10.354Z,15.25
2022-10-17T07:53:13.668Z,15.25
2022-10-17T07:54:21.254Z,15.31
2022-10-17T07:55:55.738Z,15.38
2022-10-17T07:56:58.491Z,15.38
2022-10-17T07:58:01.224Z,15.38
2022-10-17T07:59:41.572Z,15.44
2022-10-17T08:00:11.887Z,15.44
2022-10-17T08:01:15.935Z,15.44
2022-10-17T08:02:19.035Z,15.44
2022-10-17T08:03:54.447Z,15.50
2022-10-17T08:04:57.059Z,15.50
2022-10-17T08:05:59.720Z,15.50
2022-10-17T08:08:04.383Z,15.50
2022-10-17T08:09:07.084Z,15.56
2022-10-17T08:10:09.929Z,15.56
2022-10-17T08:11:44.434Z,15.56
2022-10-17T08:12:47.139Z,15.56
2022-10-17T08:13:49.870Z,15.56
2022-10-17T08:15:27.950Z,15.56
2022-10-17T08:16:33.708Z,15.56
2022-10-17T08:17:36.427Z,15.56
2022-10-17T08:19:10.906Z,15.56
2022-10-17T08:20:13.570Z,15.56
2022-10-17T08:21:16.369Z,15.56
2022-10-17T08:22:50.809Z,15.56
2022-10-17T08:23:53.476Z,15.56
2022-10-17T08:24:56.129Z,15.56
2022-10-17T08:26:30.530Z,15.56
2022-10-17T08:27:43.236Z,15.63
2022-10-17T08:28:46.185Z,15.63
2022-10-17T08:30:21.207Z,15.63
2022-10-17T08:31:23.861Z,15.63
2022-10-17T08:32:36.446Z,15.63
2022-10-17T08:34:10.983Z,15.69
2022-10-17T08:35:13.703Z,15.69
2022-10-17T08:36:16.456Z,15.69
2022-10-17T08:37:50.985Z,15.75
2022-10-17T08:39:02.978Z,15.75
2022-10-17T08:40:05.795Z,15.75
2022-10-17T08:41:40.258Z,15.75
2022-10-17T08:42:43.098Z,15.75
2022-10-17T08:43:45.850Z,15.75
2022-10-17T08:45:20.380Z,15.75
2022-10-17T08:46:24.206Z,15.75
2022-10-17T08:47:27.540Z,15.81
2022-10-17T08:49:02.370Z,15.81
2022-10-17T08:50:09.438Z,15.88
2022-10-17T08:51:12.356Z,15.88
2022-10-17T08:52:46.919Z,15.88
2022-10-17T08:53:49.561Z,15.88
2022-10-17T08:54:52.350Z,15.88
2022-10-17T08:56:44.464Z,15.88
2022-10-17T08:57:51.612Z,15.88
2022-10-17T08:58:54.243Z,15.88
2022-10-17T09:00:12.505Z,15.88
2022-10-17T09:01:15.363Z,15.88
2022-10-17T09:02:18.034Z,15.88
2022-10-17T09:03:53.248Z,15.88
2022-10-17T09:04:56.158Z,15.88
2022-10-17T09:06:05.951Z,15.88
2022-10-17T09:07:40.379Z,15.88
2022-10-17T09:08:42.988Z,15.94
2022-10-17T09:09:45.726Z,15.94
2022-10-17T09:11:20.116Z,15.94
2022-10-17T09:12:22.983Z,15.94
2022-10-17T09:13:26.104Z,15.94
2022-10-17T09:15:00.813Z,15.88
2022-10-17T09:16:03.558Z,15.94
2022-10-17T09:17:06.498Z,15.88
2022-10-17T09:18:41.321Z,15.88
2022-10-17T09:19:44.032Z,15.88
2022-10-17T09:20:46.754Z,15.88
2022-10-17T09:22:21.334Z,15.88
2022-10-17T09:23:24.259Z,15.88
2022-10-17T09:24:50.736Z,15.88
2022-10-17T09:26:25.508Z,15.81
2022-10-17T09:27:28.560Z,15.81
2022-10-17T09:28:31.617Z,15.81
2022-10-17T09:30:40.165Z,15.81
2022-10-17T09:31:47.329Z,15.81
2022-10-17T09:32:50.259Z,15.88
2022-10-17T09:35:05.969Z,15.88
2022-10-17T09:36:08.782Z,15.88
2022-10-17T09:37:11.547Z,15.88
2022-10-17T09:38:46.048Z,15.88
2022-10-17T09:39:48.670Z,15.88
2022-10-17T09:40:56.119Z,15.88
2022-10-17T09:49:10.252Z,15.81
2022-10-17T09:50:15.153Z,15.88
2022-10-17T09:51:25.833Z,15.81
2022-10-17T09:53:01.034Z,15.88
2022-10-17T09:54:03.726Z,15.88
2022-10-17T09:55:06.412Z,15.88
2022-10-17T09:56:40.985Z,15.81
2022-10-17T09:57:43.632Z,15.81
2022-10-17T09:58:46.310Z,15.81
2022-10-17T10:00:11.441Z,15.81
2022-10-17T10:01:16.450Z,15.81
2022-10-17T10:02:22.193Z,15.81
2022-10-17T10:03:57.957Z,15.81
2022-10-17T10:05:08.542Z,15.81
2022-10-17T10:06:11.468Z,15.81
2022-10-17T10:07:45.890Z,15.81
2022-10-17T10:08:48.501Z,15.81
2022-10-17T10:09:51.231Z,15.81
2022-10-17T10:11:25.734Z,15.81
2022-10-17T10:12:28.773Z,15.81
2022-10-17T10:13:31.708Z,15.81
2022-10-17T10:15:06.117Z,15.81
2022-10-17T10:16:08.845Z,15.81
2022-10-17T10:17:11.896Z,15.81
2022-10-17T10:18:47.531Z,15.75
2022-10-17T10:19:57.309Z,15.75
2022-10-17T10:21:00.143Z,15.75
2022-10-17T10:22:34.847Z,15.75
2022-10-17T10:23:39.147Z,15.75
2022-10-17T10:24:41.826Z,15.75
2022-10-17T10:26:20.151Z,15.81
2022-10-17T10:27:23.715Z,15.81
2022-10-17T10:28:26.623Z,15.81
2022-10-17T10:30:01.861Z,15.81
2022-10-17T10:31:04.441Z,15.81
2022-10-17T10:32:07.138Z,15.88
2022-10-17T10:33:44.153Z,15.88
2022-10-17T10:34:53.879Z,15.88
2022-10-17T10:35:56.554Z,15.88
2022-10-17T10:37:31.638Z,15.94
2022-10-17T10:38:34.763Z,15.94
2022-10-17T10:39:42.753Z,15.94
2022-10-17T10:41:17.140Z,15.94
2022-10-17T10:42:19.838Z,15.94
2022-10-17T10:43:22.732Z,15.94
2022-10-17T10:44:58.066Z,15.94
2022-10-17T10:46:34.342Z,15.94
2022-10-17T10:47:37.149Z,15.88
2022-10-17T10:49:11.716Z,15.88
2022-10-17T10:50:14.278Z,15.88
2022-10-17T10:51:20.971Z,15.88
2022-10-17T10:52:55.466Z,15.88
2022-10-17T10:53:58.522Z,15.88
2022-10-17T10:55:01.547Z,15.88
2022-10-17T10:56:35.970Z,15.88
2022-10-17T10:57:44.158Z,15.88
2022-10-17T10:58:46.839Z,15.88
2022-10-17T11:00:11.774Z,15.88
2022-10-17T11:01:14.950Z,15.88
2022-10-17T11:02:17.808Z,15.88
2022-10-17T11:03:57.868Z,15.88
2022-10-17T11:05:00.497Z,15.88
2022-10-17T11:06:03.147Z,15.88
2022-10-17T11:07:37.731Z,15.88
2022-10-17T11:08:40.434Z,15.94
2022-10-17T11:09:43.065Z,15.94
2022-10-17T11:11:17.540Z,15.94
2022-10-17T11:12:20.229Z,15.94
2022-10-17T11:13:23.247Z,15.94
2022-10-17T11:15:01.710Z,16.00
2022-10-17T11:16:04.497Z,16.00
2022-10-17T11:17:07.151Z,16.06
2022-10-17T11:18:42.029Z,16.06
2022-10-17T11:19:44.752Z,16.06
2022-10-17T11:20:47.467Z,16.06
2022-10-17T11:22:24.046Z,16.00
2022-10-17T11:23:30.438Z,16.00
2022-10-17T11:24:33.267Z,16.06
2022-10-17T11:26:07.902Z,16.00
2022-10-17T11:27:10.730Z,16.00
2022-10-17T11:28:13.393Z,16.00
2022-10-17T11:29:48.365Z,16.00
2022-10-17T11:30:51.334Z,16.00
2022-10-17T11:31:59.428Z,15.94
2022-10-17T11:33:34.439Z,16.00
2022-10-17T11:34:37.135Z,16.00
2022-10-17T11:35:39.871Z,15.94
2022-10-17T11:37:16.990Z,15.94
2022-10-17T11:38:23.869Z,15.94
2022-10-17T11:39:26.767Z,15.94
2022-10-17T11:41:06.588Z,16.00
2022-10-17T11:42:09.422Z,15.94
2022-10-17T11:43:12.832Z,15.94
2022-10-17T11:44:47.606Z,15.94
2022-10-17T11:45:50.600Z,15.94
2022-10-17T11:46:53.464Z,15.94
2022-10-17T11:48:28.199Z,15.94
2022-10-17T11:49:32.975Z,15.94
2022-10-17T11:52:00.630Z,16.00
2022-10-17T11:54:15.083Z,16.00
2022-10-17T11:55:18.477Z,16.00
2022-10-17T11:56:21.393Z,16.00
2022-10-17T11:58:00.927Z,16.06
2022-10-17T11:59:03.806Z,16.06
2022-10-17T12:00:12.250Z,16.06
2022-10-17T12:01:24.439Z,16.13
2022-10-17T12:02:27.391Z,16.13
2022-10-17T12:04:02.697Z,16.13
2022-10-17T12:05:05.917Z,16.19
2022-10-17T12:06:08.669Z,16.19
2022-10-17T12:07:47.428Z,16.25
2022-10-17T12:08:50.374Z,16.25
2022-10-17T12:09:53.715Z,16.31
2022-10-17T12:11:28.140Z,16.38
2022-10-17T12:12:31.377Z,16.38
2022-10-17T12:13:34.788Z,16.38
2022-10-17T12:15:12.842Z,16.44
2022-10-17T12:16:21.296Z,16.44
2022-10-17T12:17:24.855Z,16.50
2022-10-17T12:18:59.771Z,16.50
2022-10-17T12:20:02.424Z,16.50
2022-10-17T12:21:05.145Z,16.50
2022-10-17T12:22:49.222Z,16.50
2022-10-17T12:23:51.871Z,16.44
2022-10-17T12:24:59.213Z,16.44
2022-10-17T12:26:40.078Z,16.44
2022-10-17T12:27:46.739Z,16.44
2022-10-17T12:28:49.457Z,16.44
2022-10-17T12:30:24.287Z,16.50
2022-10-17T12:31:33.393Z,16.50
2022-10-17T12:33:00.493Z,16.50
2022-10-17T12:34:39.815Z,16.50
2022-10-17T12:35:42.506Z,16.50
2022-10-17T12:36:45.225Z,16.50
2022-10-17T12:38:19.695Z,16.50
2022-10-17T12:39:25.223Z,16.50
2022-10-17T12:40:28.044Z,16.50
2022-10-17T12:42:06.981Z,16.50
2022-10-17T12:43:11.238Z,16.50
2022-10-17T12:44:19.348Z,16.50
2022-10-17T12:46:04.149Z,16.50
2022-10-17T12:47:07.005Z,16.50
2022-10-17T12:48:11.959Z,16.50
2022-10-17T12:49:46.561Z,16.50
2022-10-17T12:50:53.847Z,16.50
2022-10-17T12:52:29.659Z,16.50
2022-10-17T12:54:05.471Z,16.50
2022-10-17T12:55:22.678Z,16.50
2022-10-17T12:56:25.957Z,16.50
2022-10-17T12:58:00.494Z,16.50
2022-10-17T12:59:03.361Z,16.50
2022-10-17T13:00:11.993Z,16.50
2022-10-17T13:01:24.336Z,16.44
2022-10-17T13:02:28.215Z,16.50
2022-10-17T13:04:02.751Z,16.50
2022-10-17T13:05:05.613Z,16.50
2022-10-17T13:06:08.407Z,16.50
2022-10-17T13:07:42.881Z,16.50
2022-10-17T13:08:47.381Z,16.50
2022-10-17T13:09:57.393Z,16.50
2022-10-17T13:11:38.650Z,16.50
2022-10-17T13:12:41.722Z,16.50
2022-10-17T13:13:44.818Z,16.50
2022-10-17T13:15:19.557Z,16.50
2022-10-17T13:16:22.531Z,16.50
2022-10-17T13:17:25.231Z,16.50
2022-10-17T13:19:05.157Z,16.50
2022-10-17T13:20:08.025Z,16.50
2022-10-17T13:21:17.989Z,16.50
2022-10-17T13:22:53.414Z,16.50
2022-10-17T13:23:55.937Z,16.50
2022-10-17T13:24:58.761Z,16.50
2022-10-17T13:26:33.286Z,16.56
2022-10-17T13:27:36.447Z,16.56
2022-10-17T13:28:39.684Z,16.56
2022-10-17T13:30:15.079Z,16.56
2022-10-17T13:31:24.741Z,16.63
2022-10-17T13:32:28.633Z,16.63
2022-10-17T13:34:03.244Z,16.63
2022-10-17T13:35:05.991Z,16.63
2022-10-17T13:36:40.664Z,16.63
2022-10-17T13:39:38.309Z,16.56
2022-10-17T13:42:10.449Z,16.56
2022-10-17T13:43:46.671Z,16.56
2022-10-17T13:44:49.487Z,16.56
2022-10-17T13:45:52.198Z,16.56
2022-10-17T13:48:00.687Z,16.63
2022-10-17T13:49:03.457Z,16.63
2022-10-17T13:50:26.350Z,16.63
2022-10-17T13:52:23.406Z,16.63
2022-10-17T13:53:26.919Z,16.63
2022-10-17T13:54:29.646Z,16.63
2022-10-17T13:56:26.434Z,16.69
2022-10-17T13:57:30.635Z,16.69
2022-10-17T13:58:34.160Z,16.69
2022-10-17T14:00:12.528Z,16.63
2022-10-17T14:01:15.585Z,16.63
2022-10-17T14:02:18.350Z,16.63
2022-10-17T14:04:03.393Z,16.63
2022-10-17T14:05:59.248Z,16.63
2022-10-17T14:07:01.987Z,16.63
2022-10-17T14:09:04.234Z,16.69
2022-10-17T14:10:06.993Z,16.69
2022-10-17T14:11:09.808Z,16.69
2022-10-17T14:12:46.360Z,16.69
2022-10-17T14:13:51.882Z,16.69
2022-10-17T14:15:09.335Z,16.69
2022-10-17T14:16:44.922Z,16.69
2022-10-17T14:17:47.699Z,16.63
2022-10-17T14:18:54.195Z,16.63
2022-10-17T14:21:54.582Z,16.69
2022-10-17T14:23:21.553Z,16.69
2022-10-17T14:24:25.006Z,16.69
2022-10-17T14:25:59.404Z,16.69
2022-10-17T14:27:02.134Z,16.69
2022-10-17T14:28:09.226Z,16.69
2022-10-17T14:29:44.514Z,16.69
2022-10-17T14:30:56.730Z,16.69
2022-10-17T14:31:59.808Z,16.69
2022-10-17T14:33:36.327Z,16.75
2022-10-17T14:34:46.677Z,16.69
2022-10-17T14:36:28.191Z,16.69
2022-10-17T14:38:03.548Z,16.63
2022-10-17T14:39:08.542Z,16.63
2022-10-17T14:40:14.672Z,16.63
2022-10-17T14:42:27.191Z,16.56
2022-10-17T14:43:29.877Z,16.56
2022-10-17T14:44:32.778Z,16.56
2022-10-17T14:46:09.947Z,16.56
2022-10-17T14:47:41.792Z,16.50
2022-10-17T14:48:46.464Z,16.56
2022-10-17T14:50:21.181Z,16.56
2022-10-17T14:51:30.099Z,16.56
2022-10-17T14:53:05.874Z,16.56
2022-10-17T14:54:45.699Z,16.56
2022-10-17T14:55:48.267Z,16.56
2022-10-17T14:56:51.363Z,16.56
2022-10-17T14:58:25.946Z,16.56
2022-10-17T14:59:52.839Z,16.63
2022-10-17T15:00:11.550Z,16.63
2022-10-17T15:01:14.228Z,16.63
2022-10-17T15:02:16.972Z,16.63
2022-10-17T15:03:52.601Z,16.63
2022-10-17T15:04:55.312Z,16.69
2022-10-17T15:06:04.513Z,16.69
2022-10-17T15:07:39.291Z,16.69
2022-10-17T15:09:46.124Z,16.69
2022-10-17T15:11:20.607Z,16.69
2022-10-17T15:12:23.249Z,16.69
2022-10-17T15:14:16.988Z,16.63
2022-10-17T15:15:51.446Z,16.63
2022-10-17T15:16:54.727Z,16.63
2022-10-17T15:17:58.069Z,16.63
2022-10-17T15:19:33.396Z,16.63
2022-10-17T15:20:36.998Z,16.63
2022-10-17T15:22:24.088Z,16.56
2022-10-17T15:23:59.892Z,16.56
2022-10-17T15:25:03.595Z,16.56
2022-10-17T15:26:07.368Z,16.56
2022-10-17T15:27:43.109Z,16.56
2022-10-17T15:28:46.798Z,16.50
2022-10-17T15:29:50.822Z,16.50
2022-10-17T15:31:32.039Z,16.50
2022-10-17T15:32:35.542Z,16.50
2022-10-17T15:33:38.953Z,16.50
2022-10-17T15:35:14.395Z,16.50
2022-10-17T15:36:18.694Z,16.44
2022-10-17T15:37:22.296Z,16.50
2022-10-17T15:38:58.694Z,16.44
2022-10-17T15:40:02.048Z,16.44
2022-10-17T15:41:05.576Z,16.44
2022-10-17T15:42:41.398Z,16.44
2022-10-17T15:43:45.127Z,16.44
2022-10-17T15:44:48.669Z,16.44
2022-10-17T15:46:24.544Z,16.44
2022-10-17T15:47:28.548Z,16.38
2022-10-17T15:48:32.610Z,16.38
2022-10-17T15:50:08.379Z,16.38
2022-10-17T15:51:12.298Z,16.38
2022-10-17T15:52:16.035Z,16.38
2022-10-17T15:53:51.685Z,16.38
2022-10-17T15:54:57.337Z,16.31
2022-10-17T15:56:03.626Z,16.31
2022-10-17T15:57:39.245Z,16.31
2022-10-17T15:58:42.755Z,16.31
2022-10-17T15:59:46.617Z,16.25
2022-10-17T16:00:16.332Z,16.25
2022-10-17T16:01:20.645Z,16.31
2022-10-17T16:02:23.917Z,16.25
2022-10-17T16:03:59.836Z,16.31
2022-10-17T16:05:41.171Z,16.25
2022-10-17T16:06:48.999Z,16.25
2022-10-17T16:07:51.695Z,16.25
2022-10-17T16:09:26.256Z,16.25
2022-10-17T16:10:28.920Z,16.25
2022-10-17T16:11:31.647Z,16.25
2022-10-17T16:13:06.476Z,16.19
2022-10-17T16:14:09.203Z,16.19
2022-10-17T16:15:12.069Z,16.19
2022-10-17T16:16:46.468Z,16.19